CA-0508 weather

Farrow's Field
Ontario, Canada

Public forecast

Using degrees Celsius for public forecast. Weather courtesy of forecast.io.

METAR (pilot weather report)

Closest report is Wiarton Airport, 19.7 nm (36.6 km) NNW. Retrieved 2019/05/27 07:00 UTC (16 minutes ago):

CYVV 270700Z 21005KT 15SM SKC 07/06 A3003 RMK SLP174

TAF (pilot weather forecast)

Forecast is more than 6 hours old.

Closest forecast is Wiarton Airport, 19.7 nm (36.6 km) NNW. Retrieved 2019/05/26 20:00 UTC (11 hours ago):

TAF CYVV 261939Z 2620/2623 25008KT P6SM FEW030 BKN250 BECMG 2621/2623 29006KT RMK NXT FCST WILL BE ISSUED AT 271045Z